Terminal Aerodrome Forecast
Issued by NWS Sioux Falls, SD

Home | Current Version | Previous Version | Text Only | Print | Product List | Glossary On
Versions: 1 2 3 4 5 6 7 8 9 10 11 12 13 14 15 16 17
000
FTUS43 KFSD 281120
TAFHON
TAF
KHON 281120Z 2812/2912 15007KT P6SM SKC
     FM281400 17007KT P6SM SCT080 SCT250
     FM290000 07010KT P6SM BKN080
     FM290300 36010KT P6SM -SHRA OVC040
     FM290600 02010KT P6SM OVC035
     FM291000 03010KT P6SM BKN020=

USA.gov is the U.S. government's official web portal to all federal, state and local government web resources and services.